createdAt,value
2023-02-07T00:00:24.806Z,-2.90
2023-02-07T00:02:52.191Z,-2.90
2023-02-07T00:05:19.489Z,-2.90
2023-02-07T00:07:46.699Z,-3.00
2023-02-07T00:10:13.991Z,-3.00
2023-02-07T00:12:41.234Z,-2.90
2023-02-07T00:15:10.516Z,-3.00
2023-02-07T00:17:37.903Z,-3.00
2023-02-07T00:20:06.653Z,-2.90
2023-02-07T00:22:33.933Z,-2.90
2023-02-07T00:25:01.138Z,-3.00
2023-02-07T00:27:28.406Z,-3.00
2023-02-07T00:29:55.639Z,-3.00
2023-02-07T00:32:24.157Z,-3.10
2023-02-07T00:34:51.433Z,-3.10
2023-02-07T00:37:18.635Z,-3.10
2023-02-07T00:39:45.843Z,-3.20
2023-02-07T00:42:13.966Z,-3.20
2023-02-07T00:44:41.180Z,-3.20
2023-02-07T00:47:08.407Z,-3.20
2023-02-07T00:49:36.923Z,-3.20
2023-02-07T00:52:04.447Z,-3.30
2023-02-07T00:54:31.696Z,-3.30
2023-02-07T00:56:58.863Z,-3.30
2023-02-07T00:59:26.182Z,-3.30
2023-02-07T01:01:53.457Z,-3.30
2023-02-07T01:04:20.701Z,-3.30
2023-02-07T01:06:49.252Z,-3.30
2023-02-07T01:09:18.521Z,-3.40
2023-02-07T01:11:45.728Z,-3.30
2023-02-07T01:14:12.936Z,-3.30
2023-02-07T01:16:40.185Z,-3.30
2023-02-07T01:19:09.124Z,-3.30
2023-02-07T01:21:37.031Z,-3.30
2023-02-07T01:24:08.039Z,-3.30
2023-02-07T01:26:36.154Z,-3.30
2023-02-07T01:29:04.179Z,-3.30
2023-02-07T01:31:31.632Z,-3.30
2023-02-07T01:34:00.536Z,-3.30
2023-02-07T01:36:29.270Z,-3.30
2023-02-07T01:38:57.262Z,-3.30
2023-02-07T01:41:27.184Z,-3.40
2023-02-07T01:43:59.381Z,-3.40
2023-02-07T01:46:28.260Z,-3.40
2023-02-07T01:48:57.989Z,-3.50
2023-02-07T01:51:26.276Z,-3.40
2023-02-07T01:53:57.529Z,-3.50
2023-02-07T01:56:32.025Z,-3.50
2023-02-07T01:59:01.541Z,-3.50
2023-02-07T02:01:28.921Z,-3.50
2023-02-07T02:03:57.086Z,-3.60
2023-02-07T02:06:27.200Z,-3.60
2023-02-07T02:08:58.040Z,-3.50
2023-02-07T02:11:47.868Z,-3.50
2023-02-07T02:14:28.981Z,-3.50
2023-02-07T02:17:05.489Z,-3.50
2023-02-07T02:20:01.954Z,-3.50
2023-02-07T02:22:54.873Z,-3.50
2023-02-07T02:25:55.067Z,-3.40
2023-02-07T02:29:18.190Z,-3.50
2023-02-07T02:32:11.142Z,-3.60
2023-02-07T02:34:49.541Z,-3.60
2023-02-07T02:37:26.472Z,-3.70
2023-02-07T02:40:02.034Z,-3.70
2023-02-07T02:42:34.058Z,-3.80
2023-02-07T02:45:05.332Z,-3.80
2023-02-07T02:47:33.660Z,-3.80
2023-02-07T02:50:04.801Z,-3.80
2023-02-07T02:52:49.588Z,-3.90
2023-02-07T02:55:29.958Z,-3.90
2023-02-07T02:58:02.656Z,-3.90
2023-02-07T03:00:41.789Z,-3.90
2023-02-07T03:03:33.149Z,-3.90
2023-02-07T03:06:13.336Z,-3.80
2023-02-07T03:08:45.731Z,-3.70
2023-02-07T03:11:15.252Z,-3.70
2023-02-07T03:13:54.073Z,-3.80
2023-02-07T03:16:24.708Z,-3.80
2023-02-07T03:19:00.512Z,-3.80
2023-02-07T03:21:33.793Z,-3.80
2023-02-07T03:24:04.337Z,-3.80
2023-02-07T03:26:35.917Z,-3.80
2023-02-07T03:29:07.594Z,-3.80
2023-02-07T03:31:37.813Z,-3.90
2023-02-07T03:34:09.913Z,-3.90
2023-02-07T03:36:42.028Z,-3.90
2023-02-07T03:39:09.835Z,-3.80
2023-02-07T03:41:42.818Z,-3.90
2023-02-07T03:44:12.754Z,-3.90
2023-02-07T03:46:40.463Z,-3.90
2023-02-07T03:49:08.023Z,-3.90
2023-02-07T03:51:35.978Z,-3.80
2023-02-07T03:54:04.664Z,-3.80
2023-02-07T03:56:31.895Z,-3.80
2023-02-07T03:58:59.107Z,-3.80
2023-02-07T04:01:26.344Z,-3.90
2023-02-07T04:03:53.692Z,-3.90
2023-02-07T04:06:21.298Z,-3.90
2023-02-07T04:08:48.703Z,-3.90
2023-02-07T04:11:17.219Z,-3.90
2023-02-07T04:13:44.431Z,-3.90
2023-02-07T04:16:11.729Z,-3.90
2023-02-07T04:18:38.994Z,-3.90
2023-02-07T04:21:08.430Z,-3.90
2023-02-07T04:23:36.281Z,-3.90
2023-02-07T04:26:03.878Z,-4.00
2023-02-07T04:28:32.473Z,-4.00
2023-02-07T04:30:59.742Z,-4.00
2023-02-07T04:33:27.042Z,-4.00
2023-02-07T04:35:55.390Z,-4.00
2023-02-07T04:38:22.678Z,-4.10
2023-02-07T04:40:50.053Z,-4.10
2023-02-07T04:43:17.594Z,-4.10
2023-02-07T04:45:48.019Z,-4.00
2023-02-07T04:48:15.511Z,-4.00
2023-02-07T04:50:42.800Z,-4.00
2023-02-07T04:53:09.990Z,-4.00
2023-02-07T04:55:37.538Z,-4.10
2023-02-07T04:58:05.309Z,-4.10
2023-02-07T05:00:32.664Z,-4.10
2023-02-07T05:03:01.286Z,-4.20
2023-02-07T05:05:28.482Z,-4.20
2023-02-07T05:07:55.690Z,-4.30
2023-02-07T05:10:22.926Z,-4.30
2023-02-07T05:12:50.134Z,-4.30
2023-02-07T05:15:17.484Z,-4.40
2023-02-07T05:17:45.407Z,-4.40
2023-02-07T05:20:14.319Z,-4.30
2023-02-07T05:22:41.575Z,-4.30
2023-02-07T05:25:08.790Z,-4.30
2023-02-07T05:27:36.077Z,-4.30
2023-02-07T05:30:04.788Z,-4.30
2023-02-07T05:32:50.938Z,-4.30
2023-02-07T05:35:19.532Z,-4.30
2023-02-07T05:37:46.756Z,-4.30
2023-02-07T05:40:14.032Z,-4.30
2023-02-07T05:42:41.335Z,-4.40
2023-02-07T05:45:09.717Z,-4.40
2023-02-07T05:47:36.977Z,-4.40
2023-02-07T05:50:04.693Z,-4.40
2023-02-07T05:52:35.628Z,-4.40
2023-02-07T05:55:03.178Z,-4.40
2023-02-07T05:57:30.450Z,-4.40
2023-02-07T05:59:57.971Z,-4.40
2023-02-07T06:02:25.170Z,-4.40
2023-02-07T06:04:52.489Z,-4.40
2023-02-07T06:07:19.715Z,-4.50
2023-02-07T06:09:48.230Z,-4.50
2023-02-07T06:12:15.421Z,-4.60
2023-02-07T06:14:42.703Z,-4.60
2023-02-07T06:17:09.893Z,-4.60
2023-02-07T06:19:37.119Z,-4.70
2023-02-07T06:22:04.348Z,-4.60
2023-02-07T06:24:31.623Z,-4.60
2023-02-07T06:27:00.234Z,-4.50
2023-02-07T06:29:27.511Z,-4.60
2023-02-07T06:31:54.745Z,-4.60
2023-02-07T06:34:22.354Z,-4.60
2023-02-07T06:36:49.643Z,-4.70
2023-02-07T06:39:16.858Z,-4.60
2023-02-07T06:41:44.080Z,-4.60
2023-02-07T06:44:12.881Z,-4.60
2023-02-07T06:46:40.107Z,-4.60
2023-02-07T06:49:07.346Z,-4.60
2023-02-07T06:51:34.568Z,-4.70
2023-02-07T06:54:03.900Z,-4.70
2023-02-07T06:56:31.200Z,-4.70
2023-02-07T06:58:58.504Z,-4.60
2023-02-07T07:01:27.098Z,-4.60
2023-02-07T07:03:54.323Z,-4.50
2023-02-07T07:06:21.717Z,-4.50
2023-02-07T07:08:49.814Z,-4.50
2023-02-07T07:11:17.087Z,-4.50
2023-02-07T07:13:44.379Z,-4.40
2023-02-07T07:16:11.664Z,-4.40
2023-02-07T07:18:40.477Z,-4.40
2023-02-07T07:21:08.166Z,-4.40
2023-02-07T07:23:35.414Z,-4.40
2023-02-07T07:26:02.621Z,-4.30
2023-02-07T07:28:30.140Z,-4.40
2023-02-07T07:31:02.946Z,-4.30
2023-02-07T07:33:30.364Z,-4.30
2023-02-07T07:35:59.199Z,-4.30
2023-02-07T07:38:26.925Z,-4.30
2023-02-07T07:40:54.328Z,-4.30
2023-02-07T07:43:21.638Z,-4.20
2023-02-07T07:45:52.916Z,-4.10
2023-02-07T07:48:20.351Z,-4.00
2023-02-07T07:50:47.714Z,-3.90
2023-02-07T07:53:16.433Z,-3.80
2023-02-07T07:55:43.643Z,-3.60
2023-02-07T07:58:10.882Z,-3.40
2023-02-07T08:00:38.363Z,-3.20
2023-02-07T08:03:05.780Z,-3.00
2023-02-07T08:05:33.084Z,-2.80
2023-02-07T08:08:00.302Z,-2.60
2023-02-07T08:10:28.849Z,-2.30
2023-02-07T08:12:56.046Z,-2.10
2023-02-07T08:15:23.378Z,-1.90
2023-02-07T08:17:50.605Z,-1.60
2023-02-07T08:20:17.853Z,-1.40
2023-02-07T08:22:45.043Z,-1.20
2023-02-07T08:25:12.579Z,-1.00
2023-02-07T08:27:41.195Z,-0.70
2023-02-07T08:30:11.290Z,-0.50
2023-02-07T08:32:39.664Z,-0.30
2023-02-07T08:35:08.557Z,0.00
2023-02-07T08:37:36.074Z,0.20
2023-02-07T08:40:04.653Z,0.50
2023-02-07T08:42:31.913Z,0.70
2023-02-07T08:45:00.677Z,0.90
2023-02-07T08:47:27.960Z,1.10
2023-02-07T08:49:55.208Z,1.40
2023-02-07T08:52:22.483Z,1.70
2023-02-07T08:54:49.751Z,1.90
2023-02-07T08:57:17.206Z,2.10
2023-02-07T08:59:44.401Z,2.30
2023-02-07T09:02:13.261Z,2.60
2023-02-07T09:04:42.695Z,2.80
2023-02-07T09:07:10.345Z,3.10
2023-02-07T09:09:37.800Z,3.30
2023-02-07T09:12:05.384Z,3.60
2023-02-07T09:14:32.622Z,3.80
2023-02-07T09:16:59.883Z,4.10
2023-02-07T09:19:28.491Z,4.40
2023-02-07T09:21:55.734Z,4.60
2023-02-07T09:24:23.657Z,4.90
2023-02-07T09:26:50.881Z,5.10
2023-02-07T09:29:18.436Z,5.40
2023-02-07T09:31:46.050Z,5.70
2023-02-07T09:34:13.354Z,6.00
2023-02-07T09:36:43.490Z,6.30
2023-02-07T09:39:11.363Z,6.60
2023-02-07T09:41:43.586Z,6.80
2023-02-07T09:44:15.984Z,7.00
2023-02-07T09:46:48.349Z,7.10
2023-02-07T09:49:29.413Z,7.30
2023-02-07T09:52:00.358Z,7.60
2023-02-07T09:54:33.110Z,7.80
2023-02-07T09:57:05.877Z,8.00
2023-02-07T09:59:41.980Z,8.20
2023-02-07T10:02:20.737Z,8.50
2023-02-07T10:04:50.002Z,8.80
2023-02-07T10:07:18.848Z,9.00
2023-02-07T10:09:46.702Z,9.30
2023-02-07T10:12:41.531Z,9.50
2023-02-07T10:15:23.627Z,9.70
2023-02-07T10:18:10.369Z,9.90
2023-02-07T10:20:41.312Z,10.10
2023-02-07T10:23:37.464Z,10.30
2023-02-07T10:26:16.279Z,10.40
2023-02-07T10:29:01.027Z,10.60
2023-02-07T10:31:31.200Z,10.70
2023-02-07T10:34:10.438Z,10.80
2023-02-07T10:36:40.752Z,10.90
2023-02-07T10:39:17.334Z,10.90
2023-02-07T10:41:45.263Z,10.90
2023-02-07T10:44:16.116Z,11.00
2023-02-07T10:46:45.181Z,10.90
2023-02-07T10:49:24.842Z,11.00
2023-02-07T10:51:55.607Z,11.20
2023-02-07T10:54:24.917Z,11.30
2023-02-07T10:56:57.709Z,11.40
2023-02-07T10:59:38.621Z,11.50
2023-02-07T11:02:37.357Z,11.60
2023-02-07T11:05:25.368Z,11.50
2023-02-07T11:07:58.230Z,11.50
2023-02-07T11:10:31.713Z,11.30
2023-02-07T11:13:00.425Z,11.00
2023-02-07T11:15:35.536Z,10.80
2023-02-07T11:18:03.688Z,10.70
2023-02-07T11:20:34.111Z,10.30
2023-02-07T11:23:06.772Z,10.10
2023-02-07T11:25:40.120Z,10.00
2023-02-07T11:28:15.218Z,10.00
2023-02-07T11:30:42.730Z,10.00
2023-02-07T11:33:17.285Z,9.90
2023-02-07T11:36:04.594Z,10.00
2023-02-07T11:38:36.401Z,10.10
2023-02-07T11:41:06.952Z,10.30
2023-02-07T11:43:35.770Z,10.30
2023-02-07T11:46:09.175Z,10.30
2023-02-07T11:48:40.103Z,10.40
2023-02-07T11:51:10.029Z,10.20
2023-02-07T11:53:40.113Z,10.20
2023-02-07T11:56:22.385Z,10.40
2023-02-07T11:58:50.491Z,10.50
2023-02-07T12:01:22.551Z,10.60
2023-02-07T12:03:58.518Z,10.50
2023-02-07T12:06:31.045Z,10.50
2023-02-07T12:08:59.517Z,10.20
2023-02-07T12:11:36.170Z,10.40
2023-02-07T12:14:08.896Z,10.70
2023-02-07T12:16:41.219Z,10.90
2023-02-07T12:19:22.766Z,11.00
2023-02-07T12:21:56.997Z,11.20
2023-02-07T12:24:29.313Z,11.20
2023-02-07T12:27:02.636Z,11.10
2023-02-07T12:29:40.915Z,11.10
2023-02-07T12:32:14.172Z,11.30
2023-02-07T12:34:48.628Z,11.50
2023-02-07T12:37:21.454Z,11.60
2023-02-07T12:39:56.925Z,11.60
2023-02-07T12:42:32.998Z,11.80
2023-02-07T12:45:02.825Z,12.10
2023-02-07T12:47:43.873Z,12.20
2023-02-07T12:50:23.256Z,12.20
2023-02-07T12:53:05.448Z,12.30
2023-02-07T12:55:42.349Z,12.50
2023-02-07T12:58:28.818Z,12.70
2023-02-07T13:01:00.681Z,12.80
2023-02-07T13:03:42.193Z,12.80
2023-02-07T13:06:18.004Z,12.60
2023-02-07T13:08:55.352Z,12.80
2023-02-07T13:11:34.125Z,13.00
2023-02-07T13:14:16.119Z,13.10
2023-02-07T13:16:51.240Z,13.00
2023-02-07T13:19:25.146Z,12.30
2023-02-07T13:21:57.609Z,12.00
2023-02-07T13:24:27.515Z,11.90
2023-02-07T13:26:56.938Z,11.80
2023-02-07T13:29:29.289Z,11.60
2023-02-07T13:31:59.925Z,11.60
2023-02-07T13:34:30.733Z,11.80
2023-02-07T13:37:08.104Z,11.90
2023-02-07T13:39:55.445Z,11.90
2023-02-07T13:42:31.442Z,12.00
2023-02-07T13:45:04.450Z,12.30
2023-02-07T13:47:45.048Z,12.50
2023-02-07T13:50:25.332Z,12.70
2023-02-07T13:52:59.347Z,12.80
2023-02-07T13:55:32.684Z,12.90
2023-02-07T13:58:18.697Z,13.10
2023-02-07T14:01:17.529Z,13.30
2023-02-07T14:04:03.312Z,13.60
2023-02-07T14:06:33.631Z,13.90
2023-02-07T14:09:05.759Z,14.10
2023-02-07T14:11:38.608Z,14.10
2023-02-07T14:14:14.067Z,14.40
2023-02-07T14:16:51.296Z,14.60
2023-02-07T14:19:47.696Z,14.70
2023-02-07T14:22:16.732Z,14.80
2023-02-07T14:25:09.551Z,14.90
2023-02-07T14:27:38.297Z,15.00
2023-02-07T14:30:18.451Z,15.10
2023-02-07T14:33:10.673Z,15.20
2023-02-07T14:35:38.887Z,15.30
2023-02-07T14:38:20.541Z,15.30
2023-02-07T14:41:09.464Z,15.20
2023-02-07T14:43:44.268Z,15.00
2023-02-07T14:46:16.369Z,14.70
2023-02-07T14:48:52.319Z,14.70
2023-02-07T14:51:23.334Z,14.70
2023-02-07T14:54:01.283Z,14.80
2023-02-07T14:56:45.862Z,14.70
2023-02-07T14:59:18.639Z,14.60
2023-02-07T15:01:46.063Z,14.40
2023-02-07T15:04:14.589Z,14.10
2023-02-07T15:06:44.096Z,13.90
2023-02-07T15:09:19.664Z,13.40
2023-02-07T15:11:54.013Z,13.20
2023-02-07T15:14:33.527Z,12.90
2023-02-07T15:17:00.933Z,12.50
2023-02-07T15:19:33.823Z,12.20
2023-02-07T15:22:01.889Z,11.80
2023-02-07T15:24:50.625Z,11.40
2023-02-07T15:27:20.531Z,10.90
2023-02-07T15:29:54.867Z,10.60
2023-02-07T15:32:23.117Z,10.50
2023-02-07T15:34:51.679Z,10.30
2023-02-07T15:37:24.805Z,10.00
2023-02-07T15:39:53.115Z,9.70
2023-02-07T15:42:21.364Z,9.50
2023-02-07T15:44:50.423Z,9.20
2023-02-07T15:47:32.781Z,9.00
2023-02-07T15:50:03.887Z,8.80
2023-02-07T15:52:33.598Z,8.60
2023-02-07T15:55:03.533Z,8.30
2023-02-07T15:57:34.937Z,8.10
2023-02-07T16:00:07.420Z,7.90
2023-02-07T16:02:52.424Z,7.70
2023-02-07T16:05:23.152Z,7.50
2023-02-07T16:07:51.328Z,7.30
2023-02-07T16:10:31.343Z,7.10
2023-02-07T16:13:00.365Z,6.90
2023-02-07T16:15:30.171Z,6.70
2023-02-07T16:17:57.721Z,6.60
2023-02-07T16:20:27.326Z,6.40
2023-02-07T16:22:57.047Z,6.30
2023-02-07T16:25:29.496Z,6.10
2023-02-07T16:27:56.926Z,6.00
2023-02-07T16:30:28.280Z,5.80
2023-02-07T16:32:55.550Z,5.70
2023-02-07T16:35:25.478Z,5.50
2023-02-07T16:37:54.930Z,5.40
2023-02-07T16:40:23.400Z,5.30
2023-02-07T16:42:53.399Z,5.10
2023-02-07T16:45:25.484Z,5.00
2023-02-07T16:47:53.339Z,4.80
2023-02-07T16:50:23.285Z,4.70
2023-02-07T16:52:52.377Z,4.60
2023-02-07T16:55:21.231Z,4.50
2023-02-07T16:57:49.325Z,4.40
2023-02-07T17:00:19.419Z,4.20
2023-02-07T17:02:48.492Z,4.20
2023-02-07T17:05:16.150Z,4.00
2023-02-07T17:07:43.758Z,3.90
2023-02-07T17:10:20.588Z,3.80
2023-02-07T17:12:49.419Z,3.70
2023-02-07T17:15:17.188Z,3.60
2023-02-07T17:17:44.494Z,3.40
2023-02-07T17:20:20.168Z,3.40
2023-02-07T17:22:48.818Z,3.30
2023-02-07T17:25:16.580Z,3.20
2023-02-07T17:27:43.917Z,3.20
2023-02-07T17:30:18.836Z,3.10
2023-02-07T17:32:46.214Z,3.10
2023-02-07T17:35:14.160Z,3.00
2023-02-07T17:37:41.851Z,3.00
2023-02-07T17:40:23.370Z,2.90
2023-02-07T17:42:50.822Z,2.90
2023-02-07T17:45:19.758Z,2.80
2023-02-07T17:47:47.022Z,2.80
2023-02-07T17:50:17.891Z,2.80
2023-02-07T17:52:45.548Z,2.80
2023-02-07T17:55:12.952Z,2.70
2023-02-07T17:57:41.461Z,2.60
2023-02-07T18:00:17.354Z,2.60
2023-02-07T18:02:47.519Z,2.60
2023-02-07T18:05:16.263Z,2.50
2023-02-07T18:07:43.833Z,2.50
2023-02-07T18:10:16.589Z,2.40
2023-02-07T18:12:44.026Z,2.40
2023-02-07T18:15:12.296Z,2.40
2023-02-07T18:17:39.900Z,2.30
2023-02-07T18:20:11.660Z,2.30
2023-02-07T18:22:38.890Z,2.20
2023-02-07T18:25:06.607Z,2.20
2023-02-07T18:27:35.366Z,2.20
2023-02-07T18:30:03.059Z,2.10
2023-02-07T18:32:30.399Z,2.10
2023-02-07T18:34:57.626Z,2.10
2023-02-07T18:37:26.479Z,2.10
2023-02-07T18:39:53.707Z,2.00
2023-02-07T18:42:21.687Z,2.00
2023-02-07T18:44:48.928Z,2.00
2023-02-07T18:47:18.585Z,1.90
2023-02-07T18:49:46.230Z,1.80
2023-02-07T18:52:14.144Z,1.80
2023-02-07T18:54:44.545Z,1.70
2023-02-07T18:57:11.838Z,1.70
2023-02-07T18:59:39.597Z,1.70
2023-02-07T19:02:07.621Z,1.60
2023-02-07T19:04:35.141Z,1.60
2023-02-07T19:07:02.373Z,1.50
2023-02-07T19:09:29.621Z,1.50
2023-02-07T19:11:58.372Z,1.40
2023-02-07T19:14:28.976Z,1.40
2023-02-07T19:16:56.962Z,1.40
2023-02-07T19:19:27.476Z,1.30
2023-02-07T19:21:55.628Z,1.30
2023-02-07T19:24:25.469Z,1.20
2023-02-07T19:26:54.944Z,1.20
2023-02-07T19:29:28.053Z,1.10
2023-02-07T19:31:55.881Z,1.00
2023-02-07T19:34:23.126Z,1.00
2023-02-07T19:36:50.515Z,1.00
2023-02-07T19:39:18.457Z,1.00
2023-02-07T19:41:45.671Z,0.90
2023-02-07T19:44:13.121Z,0.90
2023-02-07T19:46:41.698Z,0.90
2023-02-07T19:49:11.067Z,0.90
2023-02-07T19:51:39.102Z,0.80
2023-02-07T19:54:06.610Z,0.80
2023-02-07T19:56:34.643Z,0.80
2023-02-07T19:59:04.260Z,0.70
2023-02-07T20:01:33.203Z,0.70
2023-02-07T20:04:02.029Z,0.60
2023-02-07T20:06:32.879Z,0.50
2023-02-07T20:09:02.911Z,0.50
2023-02-07T20:11:30.689Z,0.50
2023-02-07T20:14:02.802Z,0.50
2023-02-07T20:16:32.824Z,0.50
2023-02-07T20:19:01.901Z,0.50
2023-02-07T20:21:31.586Z,0.40
2023-02-07T20:23:59.473Z,0.40
2023-02-07T20:26:30.532Z,0.50
2023-02-07T20:28:59.945Z,0.40
2023-02-07T20:31:28.105Z,0.30
2023-02-07T20:33:57.421Z,0.30
2023-02-07T20:36:26.464Z,0.30
2023-02-07T20:38:56.616Z,0.30
2023-02-07T20:41:36.061Z,0.20
2023-02-07T20:44:05.672Z,0.20
2023-02-07T20:46:35.061Z,0.10
2023-02-07T20:49:04.897Z,0.10
2023-02-07T20:51:33.945Z,0.00
2023-02-07T20:54:02.969Z,0.00
2023-02-07T20:56:32.668Z,0.10
2023-02-07T20:59:00.113Z,0.10
2023-02-07T21:01:29.126Z,0.10
2023-02-07T21:03:58.694Z,0.00
2023-02-07T21:06:26.568Z,0.00
2023-02-07T21:09:02.895Z,0.00
2023-02-07T21:11:35.219Z,-0.10
2023-02-07T21:14:04.079Z,-0.20
2023-02-07T21:16:31.840Z,-0.20
2023-02-07T21:18:59.385Z,-0.20
2023-02-07T21:21:27.229Z,-0.20
2023-02-07T21:23:56.110Z,-0.30
2023-02-07T21:26:23.569Z,-0.30
2023-02-07T21:28:50.892Z,-0.30
2023-02-07T21:31:20.491Z,-0.30
2023-02-07T21:33:49.635Z,-0.40
2023-02-07T21:36:19.515Z,-0.40
2023-02-07T21:38:48.246Z,-0.50
2023-02-07T21:41:19.324Z,-0.40
2023-02-07T21:43:46.710Z,-0.50
2023-02-07T21:46:19.279Z,-0.50
2023-02-07T21:48:47.785Z,-0.50
2023-02-07T21:51:17.648Z,-0.60
2023-02-07T21:53:45.652Z,-0.60
2023-02-07T21:56:15.439Z,-0.60
2023-02-07T21:58:44.370Z,-0.60
2023-02-07T22:01:13.851Z,-0.70
2023-02-07T22:03:44.291Z,-0.70
2023-02-07T22:06:12.435Z,-0.70
2023-02-07T22:08:40.341Z,-0.70
2023-02-07T22:11:10.545Z,-0.60
2023-02-07T22:13:42.060Z,-0.60
2023-02-07T22:16:13.439Z,-0.70
2023-02-07T22:18:41.346Z,-0.80
2023-02-07T22:21:11.504Z,-0.80
2023-02-07T22:23:39.272Z,-0.80
2023-02-07T22:26:07.692Z,-0.90
2023-02-07T22:28:36.757Z,-0.90
2023-02-07T22:31:10.580Z,-0.90
2023-02-07T22:33:38.496Z,-0.90
2023-02-07T22:36:12.560Z,-0.90
2023-02-07T22:38:40.189Z,-0.90
2023-02-07T22:41:08.088Z,-1.00
2023-02-07T22:43:36.127Z,-1.00
2023-02-07T22:46:04.607Z,-1.10
2023-02-07T22:48:34.445Z,-1.10
2023-02-07T22:51:12.143Z,-1.10
2023-02-07T22:53:39.912Z,-1.10
2023-02-07T22:56:07.949Z,-1.20
2023-02-07T22:58:37.557Z,-1.20
2023-02-07T23:01:06.260Z,-1.20
2023-02-07T23:03:35.140Z,-1.30
2023-02-07T23:06:04.200Z,-1.30
2023-02-07T23:08:32.070Z,-1.30
2023-02-07T23:10:59.974Z,-1.30
2023-02-07T23:13:29.627Z,-1.20
2023-02-07T23:15:57.503Z,-1.20
2023-02-07T23:18:25.590Z,-1.10
2023-02-07T23:20:54.385Z,-1.10
2023-02-07T23:23:23.325Z,-1.10
2023-02-07T23:25:51.268Z,-1.10
2023-02-07T23:28:19.039Z,-1.10
2023-02-07T23:30:46.748Z,-1.20
2023-02-07T23:33:14.291Z,-1.20
2023-02-07T23:35:42.215Z,-1.30
2023-02-07T23:38:11.557Z,-1.30
2023-02-07T23:40:39.656Z,-1.40
2023-02-07T23:43:07.874Z,-1.40
2023-02-07T23:45:35.435Z,-1.50
2023-02-07T23:48:04.174Z,-1.40
2023-02-07T23:50:32.143Z,-1.50
2023-02-07T23:53:00.004Z,-1.50
2023-02-07T23:55:29.490Z,-1.60
2023-02-07T23:57:57.008Z,-1.60
